Aviation Digital Data Service (ADDS)

Output produced by METARs form (0655 UTC 20 March 2019)
found at http://www.aviationweather.gov/metar/data/
 
METAR text: FYWH 200600Z 19004KT CAVOK 23/00 Q1023 NOSIG
Conditions at: FYWH (J. G. STRIJDOM , NA) observed 0600 UTC 20 March 2019
Temperature: 23.0°C (73°F)
Dewpoint: 0.0°C (32°F) [RH = 22%]
Pressure (altimeter): 30.21 inches Hg (1023.0 mb)
Winds: from the S (190 degrees) at 5 MPH (4 knots; 2.1 m/s)
Visibility: 6 or more miles (10+ km)
Ceiling: ceiling and visibility are OK
Clouds: unknown
Weather: no significant weather observed at this time

METAR text: FYWH 200500Z 18008KT CAVOK 21/01 Q1022 NOSIG
Conditions at: FYWH (J. G. STRIJDOM , NA) observed 0500 UTC 20 March 2019
Temperature: 21.0°C (70°F)
Dewpoint: 1.0°C (34°F) [RH = 26%]
Pressure (altimeter): 30.18 inches Hg (1022.0 mb)
Winds: from the S (180 degrees) at 9 MPH (8 knots; 4.1 m/s)
Visibility: 6 or more miles (10+ km)
Ceiling: ceiling and visibility are OK
Clouds: unknown
Weather: no significant weather observed at this time

METAR text: FYWH 200400Z 18007KT CAVOK 22/02 Q1021 NOSIG
Conditions at: FYWH (J. G. STRIJDOM , NA) observed 0400 UTC 20 March 2019
Temperature: 22.0°C (72°F)
Dewpoint: 2.0°C (36°F) [RH = 27%]
Pressure (altimeter): 30.15 inches Hg (1021.0 mb)
Winds: from the S (180 degrees) at 8 MPH (7 knots; 3.6 m/s)
Visibility: 6 or more miles (10+ km)
Ceiling: ceiling and visibility are OK
Clouds: unknown
Weather: no significant weather observed at this time

METAR text: FYWH 200300Z 19008KT CAVOK 22/02 Q1021 NOSIG
Conditions at: FYWH (J. G. STRIJDOM , NA) observed 0300 UTC 20 March 2019
Temperature: 22.0°C (72°F)
Dewpoint: 2.0°C (36°F) [RH = 27%]
Pressure (altimeter): 30.15 inches Hg (1021.0 mb)
Winds: from the S (190 degrees) at 9 MPH (8 knots; 4.1 m/s)
Visibility: 6 or more miles (10+ km)
Ceiling: ceiling and visibility are OK
Clouds: unknown
Weather: no significant weather observed at this time

METAR text: FYWH 200200Z 20008KT CAVOK 23/02 Q1021 NOSIG
Conditions at: FYWH (J. G. STRIJDOM , NA) observed 0200 UTC 20 March 2019
Temperature: 23.0°C (73°F)
Dewpoint: 2.0°C (36°F) [RH = 25%]
Pressure (altimeter): 30.15 inches Hg (1021.0 mb)
Winds: from the SSW (200 degrees) at 9 MPH (8 knots; 4.1 m/s)
Visibility: 6 or more miles (10+ km)
Ceiling: ceiling and visibility are OK
Clouds: unknown
Weather: no significant weather observed at this time

METAR text: FYWH 192200Z 26009KT CAVOK 23/07 Q1021 NOSIG
Conditions at: FYWH (J. G. STRIJDOM , NA) observed 2200 UTC 19 March 2019
Temperature: 23.0°C (73°F)
Dewpoint: 7.0°C (45°F) [RH = 36%]
Pressure (altimeter): 30.15 inches Hg (1021.0 mb)
Winds: from the W (260 degrees) at 10 MPH (9 knots; 4.6 m/s)
Visibility: 6 or more miles (10+ km)
Ceiling: ceiling and visibility are OK
Clouds: unknown
Weather: no significant weather observed at this time

METAR text: FYWH 192100Z 24005KT 9999 FEW040CB 24/07 Q1021 NOSIG
Conditions at: FYWH (J. G. STRIJDOM , NA) observed 2100 UTC 19 March 2019
Temperature: 24.0°C (75°F)
Dewpoint: 7.0°C (45°F) [RH = 34%]
Pressure (altimeter): 30.15 inches Hg (1021.0 mb)
Winds: from the WSW (240 degrees) at 6 MPH (5 knots; 2.6 m/s)
Visibility: 6 or more miles (10+ km)
Ceiling: at least 12,000 feet AGL
Clouds: few clouds at 4000 feet AGL
Weather: no significant weather observed at this time

METAR text: FYWH 192000Z 27005KT 9999 FEW040CB 24/07 Q1022 NOSIG
Conditions at: FYWH (J. G. STRIJDOM , NA) observed 2000 UTC 19 March 2019
Temperature: 24.0°C (75°F)
Dewpoint: 7.0°C (45°F) [RH = 34%]
Pressure (altimeter): 30.18 inches Hg (1022.0 mb)
Winds: from the W (270 degrees) at 6 MPH (5 knots; 2.6 m/s)
Visibility: 6 or more miles (10+ km)
Ceiling: at least 12,000 feet AGL
Clouds: few clouds at 4000 feet AGL
Weather: no significant weather observed at this time

METAR text: FYWH 191900Z 00000KT 9999 FEW040CB 26/07 Q1021 NOSIG
Conditions at: FYWH (J. G. STRIJDOM , NA) observed 1900 UTC 19 March 2019
Temperature: 26.0°C (79°F)
Dewpoint: 7.0°C (45°F) [RH = 30%]
Pressure (altimeter): 30.15 inches Hg (1021.0 mb)
Winds: calm
Visibility: 6 or more miles (10+ km)
Ceiling: at least 12,000 feet AGL
Clouds: few clouds at 4000 feet AGL
Weather: no significant weather observed at this time

METAR text: FYWH 191800Z 04009KT 9999 FEW040CB 27/05 Q1020 NOSIG
Conditions at: FYWH (J. G. STRIJDOM , NA) observed 1800 UTC 19 March 2019
Temperature: 27.0°C (81°F)
Dewpoint: 5.0°C (41°F) [RH = 24%]
Pressure (altimeter): 30.12 inches Hg (1020.0 mb)
Winds: from the NE (40 degrees) at 10 MPH (9 knots; 4.6 m/s)
Visibility: 6 or more miles (10+ km)
Ceiling: at least 12,000 feet AGL
Clouds: few clouds at 4000 feet AGL
Weather: no significant weather observed at this time

METAR text: FYWH 191700Z 31005KT 9999 FEW040CB SCT045 29/05 Q1019 NOSIG
Conditions at: FYWH (J. G. STRIJDOM , NA) observed 1700 UTC 19 March 2019
Temperature: 29.0°C (84°F)
Dewpoint: 5.0°C (41°F) [RH = 22%]
Pressure (altimeter): 30.09 inches Hg (1019.0 mb)
Winds: from the NW (310 degrees) at 6 MPH (5 knots; 2.6 m/s)
Visibility: 6 or more miles (10+ km)
Ceiling: at least 12,000 feet AGL
Clouds: few clouds at 4000 feet AGL
scattered clouds at 4500 feet AGL
Weather: no significant weather observed at this time

METAR text: FYWH 191600Z 32010KT 9999 FEW040CB SCT045 31/04 Q1019 NOSIG
Conditions at: FYWH (J. G. STRIJDOM , NA) observed 1600 UTC 19 March 2019
Temperature: 31.0°C (88°F)
Dewpoint: 4.0°C (39°F) [RH = 18%]
Pressure (altimeter): 30.09 inches Hg (1019.0 mb)
Winds: from the NW (320 degrees) at 12 MPH (10 knots; 5.1 m/s)
Visibility: 6 or more miles (10+ km)
Ceiling: at least 12,000 feet AGL
Clouds: few clouds at 4000 feet AGL
scattered clouds at 4500 feet AGL
Weather: no significant weather observed at this time

METAR text: FYWH 191400Z 06007KT 010V120 9999 FEW045CB SCT050TCU 31/04 Q1019 NOSIG
Conditions at: FYWH (J. G. STRIJDOM , NA) observed 1400 UTC 19 March 2019
Temperature: 31.0°C (88°F)
Dewpoint: 4.0°C (39°F) [RH = 18%]
Pressure (altimeter): 30.09 inches Hg (1019.0 mb)
Winds: from the ENE (60 degrees) at 8 MPH (7 knots; 3.6 m/s)
Visibility: 6 or more miles (10+ km)
Ceiling: at least 12,000 feet AGL
Clouds: few clouds at 4500 feet AGL
scattered clouds at 5000 feet AGL
Weather: no significant weather observed at this time

METAR text: FYWH 191300Z 06005KT 9999 FEW045CB SCT050TCU 31/04 Q1020 NOSIG
Conditions at: FYWH (J. G. STRIJDOM , NA) observed 1300 UTC 19 March 2019
Temperature: 31.0°C (88°F)
Dewpoint: 4.0°C (39°F) [RH = 18%]
Pressure (altimeter): 30.12 inches Hg (1020.0 mb)
Winds: from the ENE (60 degrees) at 6 MPH (5 knots; 2.6 m/s)
Visibility: 6 or more miles (10+ km)
Ceiling: at least 12,000 feet AGL
Clouds: few clouds at 4500 feet AGL
scattered clouds at 5000 feet AGL
Weather: no significant weather observed at this time

METAR text: FYWH 191200Z 33004KT 9999 FEW045CB SCT050TCU 31/05 Q1021 NOSIG
Conditions at: FYWH (J. G. STRIJDOM , NA) observed 1200 UTC 19 March 2019
Temperature: 31.0°C (88°F)
Dewpoint: 5.0°C (41°F) [RH = 19%]
Pressure (altimeter): 30.15 inches Hg (1021.0 mb)
Winds: from the NNW (330 degrees) at 5 MPH (4 knots; 2.1 m/s)
Visibility: 6 or more miles (10+ km)
Ceiling: at least 12,000 feet AGL
Clouds: few clouds at 4500 feet AGL
scattered clouds at 5000 feet AGL
Weather: no significant weather observed at this time

METAR text: FYWH 191100Z 11004KT 9999 FEW045TCU SCT050 30/06 Q1022 NOSIG
Conditions at: FYWH (J. G. STRIJDOM , NA) observed 1100 UTC 19 March 2019
Temperature: 30.0°C (86°F)
Dewpoint: 6.0°C (43°F) [RH = 22%]
Pressure (altimeter): 30.18 inches Hg (1022.0 mb)
Winds: from the ESE (110 degrees) at 5 MPH (4 knots; 2.1 m/s)
Visibility: 6 or more miles (10+ km)
Ceiling: at least 12,000 feet AGL
Clouds: few clouds at 4500 feet AGL
scattered clouds at 5000 feet AGL
Weather: no significant weather observed at this time

METAR text: FYWH 191000Z 05003KT 9999 FEW050 29/05 Q1023 BECMG SCT050
Conditions at: FYWH (J. G. STRIJDOM , NA) observed 1000 UTC 19 March 2019
Temperature: 29.0°C (84°F)
Dewpoint: 5.0°C (41°F) [RH = 22%]
Pressure (altimeter): 30.21 inches Hg (1023.0 mb)
Winds: from the NE (50 degrees) at 3 MPH (3 knots; 1.5 m/s)
Visibility: 6 or more miles (10+ km)
Ceiling: at least 12,000 feet AGL
Clouds: few clouds at 5000 feet AGL
Weather: no significant weather observed at this time

METAR text: FYWH 190900Z 09005KT 9999 FEW050 29/05 Q1023 NOSIG
Conditions at: FYWH (J. G. STRIJDOM , NA) observed 0900 UTC 19 March 2019
Temperature: 29.0°C (84°F)
Dewpoint: 5.0°C (41°F) [RH = 22%]
Pressure (altimeter): 30.21 inches Hg (1023.0 mb)
Winds: from the E (90 degrees) at 6 MPH (5 knots; 2.6 m/s)
Visibility: 6 or more miles (10+ km)
Ceiling: at least 12,000 feet AGL
Clouds: few clouds at 5000 feet AGL
Weather: no significant weather observed at this time

METAR text: FYWH 190800Z 00000KT CAVOK 28/06 Q1023 NOSIG
Conditions at: FYWH (J. G. STRIJDOM , NA) observed 0800 UTC 19 March 2019
Temperature: 28.0°C (82°F)
Dewpoint: 6.0°C (43°F) [RH = 25%]
Pressure (altimeter): 30.21 inches Hg (1023.0 mb)
Winds: calm
Visibility: 6 or more miles (10+ km)
Ceiling: ceiling and visibility are OK
Clouds: unknown
Weather: no significant weather observed at this time

METAR text: FYWH 190700Z 00000KT CAVOK 25/08 Q1022 NOSIG
Conditions at: FYWH (J. G. STRIJDOM , NA) observed 0700 UTC 19 March 2019
Temperature: 25.0°C (77°F)
Dewpoint: 8.0°C (46°F) [RH = 34%]
Pressure (altimeter): 30.18 inches Hg (1022.0 mb)
Winds: calm
Visibility: 6 or more miles (10+ km)
Ceiling: ceiling and visibility are OK
Clouds: unknown
Weather: no significant weather observed at this time

METAR text: FYWH 190600Z 27003KT CAVOK 19/10 Q1022 NOSIG
Conditions at: FYWH (J. G. STRIJDOM , NA) observed 0600 UTC 19 March 2019
Temperature: 19.0°C (66°F)
Dewpoint: 10.0°C (50°F) [RH = 56%]
Pressure (altimeter): 30.18 inches Hg (1022.0 mb)
Winds: from the W (270 degrees) at 3 MPH (3 knots; 1.5 m/s)
Visibility: 6 or more miles (10+ km)
Ceiling: ceiling and visibility are OK
Clouds: unknown
Weather: no significant weather observed at this time

METAR text: FYWH 190500Z 25004KT CAVOK 16/10 Q1021 NOSIG
Conditions at: FYWH (J. G. STRIJDOM , NA) observed 0500 UTC 19 March 2019
Temperature: 16.0°C (61°F)
Dewpoint: 10.0°C (50°F) [RH = 68%]
Pressure (altimeter): 30.15 inches Hg (1021.0 mb)
Winds: from the WSW (250 degrees) at 5 MPH (4 knots; 2.1 m/s)
Visibility: 6 or more miles (10+ km)
Ceiling: ceiling and visibility are OK
Clouds: unknown
Weather: no significant weather observed at this time

METAR text: FYWH 190400Z 26004KT CAVOK 16/10 Q1021 NOSIG
Conditions at: FYWH (J. G. STRIJDOM , NA) observed 0400 UTC 19 March 2019
Temperature: 16.0°C (61°F)
Dewpoint: 10.0°C (50°F) [RH = 68%]
Pressure (altimeter): 30.15 inches Hg (1021.0 mb)
Winds: from the W (260 degrees) at 5 MPH (4 knots; 2.1 m/s)
Visibility: 6 or more miles (10+ km)
Ceiling: ceiling and visibility are OK
Clouds: unknown
Weather: no significant weather observed at this time

METAR text: FYWH 190300Z 26004KT CAVOK 15/10 Q1021 NOSIG
Conditions at: FYWH (J. G. STRIJDOM , NA) observed 0300 UTC 19 March 2019
Temperature: 15.0°C (59°F)
Dewpoint: 10.0°C (50°F) [RH = 72%]
Pressure (altimeter): 30.15 inches Hg (1021.0 mb)
Winds: from the W (260 degrees) at 5 MPH (4 knots; 2.1 m/s)
Visibility: 6 or more miles (10+ km)
Ceiling: ceiling and visibility are OK
Clouds: unknown
Weather: no significant weather observed at this time

METAR text: FYWH 182300Z VRB02KT CAVOK 17/11 Q1022 NOSIG
Conditions at: FYWH (J. G. STRIJDOM , NA) observed 2300 UTC 18 March 2019
Temperature: 17.0°C (63°F)
Dewpoint: 11.0°C (52°F) [RH = 68%]
Pressure (altimeter): 30.18 inches Hg (1022.0 mb)
Winds: variable direction winds at 2 MPH (2 knots; 1.0 m/s)
Visibility: 6 or more miles (10+ km)
Ceiling: ceiling and visibility are OK
Clouds: unknown
Weather: no significant weather observed at this time

METAR text: FYWH 182200Z 00000KT CAVOK 18/12 Q1022 NOSIG
Conditions at: FYWH (J. G. STRIJDOM , NA) observed 2200 UTC 18 March 2019
Temperature: 18.0°C (64°F)
Dewpoint: 12.0°C (54°F) [RH = 68%]
Pressure (altimeter): 30.18 inches Hg (1022.0 mb)
Winds: calm
Visibility: 6 or more miles (10+ km)
Ceiling: ceiling and visibility are OK
Clouds: unknown
Weather: no significant weather observed at this time

METAR text: FYWH 182000Z 27004KT CAVOK 20/11 Q1022 NOSIG
Conditions at: FYWH (J. G. STRIJDOM , NA) observed 2000 UTC 18 March 2019
Temperature: 20.0°C (68°F)
Dewpoint: 11.0°C (52°F) [RH = 56%]
Pressure (altimeter): 30.18 inches Hg (1022.0 mb)
Winds: from the W (270 degrees) at 5 MPH (4 knots; 2.1 m/s)
Visibility: 6 or more miles (10+ km)
Ceiling: ceiling and visibility are OK
Clouds: unknown
Weather: no significant weather observed at this time

METAR text: FYWH 181900Z 03004KT 300V070 9999 FEW040CB SCT050 BKN090 22/10 Q1021 NOSIG
Conditions at: FYWH (J. G. STRIJDOM , NA) observed 1900 UTC 18 March 2019
Temperature: 22.0°C (72°F)
Dewpoint: 10.0°C (50°F) [RH = 46%]
Pressure (altimeter): 30.15 inches Hg (1021.0 mb)
Winds: from the NNE (30 degrees) at 5 MPH (4 knots; 2.1 m/s)
Visibility: 6 or more miles (10+ km)
Ceiling: 9000 feet AGL
Clouds: few clouds at 4000 feet AGL
scattered clouds at 5000 feet AGL
broken clouds at 9000 feet AGL
Weather: no significant weather observed at this time

Forecast for: FYWH (J. G. STRIJDOM , NA)
Text: TAF FYWH 200400Z 2006/2106 22006KT CAVOK
Forecast period: 0600 to 0900 UTC 20 March 2019
Forecast type: FROM: standard forecast or significant change
Winds: from the SW (220 degrees) at 7 MPH (6 knots; 3.1 m/s)
Visibility: 6 or more miles 10+ km)
Ceiling: unknown
Clouds: missing
Weather: NSW  (no significant weather)
Text: BECMG 2009/2011 04008KT 9999 SCT050
Forecast period: 0900 to 1700 UTC 20 March 2019
Forecast type: BECOMING: Conditions expected to become as follows by 1100 UTC 20 March 2019
Winds: from the NE (40 degrees) at 9 MPH (8 knots; 4.1 m/s)
Visibility: 6 or more miles 10+ km)
Ceiling: at least 12,000 feet AGL
Clouds: scattered clouds at 5000 feet AGL
Weather: NSW  (no significant weather)
Text: PROB30
Forecast period: 1300 to 1600 UTC 20 March 2019
Forecast type: TEMPORARY: The following changes expected for less than half the time period
Winds: from the NNW (340 degrees) at 15 MPH (13 knots; 6.7 m/s)
Visibility: missing
Ceiling: at least 12,000 feet AGL
Clouds: few clouds at 5000 feet AGL
Weather: no significant weather forecast for this period
Text: TEMPO 2013/2016 34013KT FEW050CB
Forecast period: 1700 UTC 20 March 2019 to 0600 UTC 21 March 2019
Forecast type: BECOMING: Conditions expected to become as follows by 1900 UTC 20 March 2019
Winds: from the W (260 degrees) at 7 MPH (6 knots; 3.1 m/s)
Visibility: 6 or more miles 10+ km)
Ceiling: unknown
Clouds: missing
Weather: NSW  (no significant weather)